Terminal Aerodrome Forecast
Issued by NWS Paducah, KY

Home | Current Version | Previous Version | Text Only | Print | Product List | Glossary On
Versions: 1 2 3 4 5 6 7 8 9 10 11 12 13 14 15 16 17
453
FTUS43 KPAH 281259 AAB
TAFPAH
TAF AMD
KPAH 281259Z 2813/0112 17009G15KT P6SM -SHRA VCTS SCT005 OVC015CB
      TEMPO 2813/2814 3SM -TSRA BR BKN005CB
     FM281400 20013G25KT P6SM SCT025 BKN035 PROB30 0100/0106
      VRB15G30KT 4SM TSRA BR BKN020CB
     FM010700 21015G25KT P6SM BKN050=

USA.gov is the U.S. government's official web portal to all federal, state and local government web resources and services.